Time;durP1;ratioP1;P1;durP2;ratioP2;P2;SDS_P1;SDS_P2;PMS_P1;PMS_P2;Temp;Humidity;BMP_temperature;BMP_pressure;BME280_temperature;BME280_humidity;BME280_pressure;Samples;Min_cycle;Max_cycle;Signal;HPM_P1;HPM_P2
2023/05/07 00:00:19;;;;;;;29.53;26.60;;;9.10;88.90;;;;;;4959097;28;20202;-93
2023/05/07 00:02:46;;;;;;;29.30;26.30;;;9.10;88.90;;;;;;4958833;28;20189;-92
2023/05/07 00:05:11;;;;;;;29.20;26.60;;;9.10;88.90;;;;;;4958104;28;20653;-92
2023/05/07 00:07:37;;;;;;;27.40;24.80;;;9.20;89.00;;;;;;4958709;28;20198;-92
2023/05/07 00:10:06;;;;;;;27.27;24.93;;;9.10;89.00;;;;;;4958008;28;20214;-93
2023/05/07 00:12:33;;;;;;;28.60;26.07;;;9.10;88.90;;;;;;4958979;28;20183;-92
2023/05/07 00:14:59;;;;;;;30.23;27.20;;;9.10;89.00;;;;;;4974715;28;20171;-91
2023/05/07 00:17:25;;;;;;;28.50;25.90;;;9.10;89.00;;;;;;4961345;28;20182;-92
2023/05/07 00:19:50;;;;;;;28.63;26.13;;;9.00;89.00;;;;;;4961063;28;20193;-91
2023/05/07 00:22:16;;;;;;;27.90;25.40;;;9.10;89.00;;;;;;4961558;28;20630;-91
2023/05/07 00:24:42;;;;;;;29.80;27.20;;;9.00;89.10;;;;;;4978160;28;20179;-92
2023/05/07 00:27:07;;;;;;;31.00;28.33;;;9.00;89.10;;;;;;4978506;28;20175;-91
2023/05/07 00:29:33;;;;;;;30.57;27.50;;;9.00;89.20;;;;;;4961293;28;20645;-91
2023/05/07 00:31:58;;;;;;;29.70;27.07;;;8.90;89.20;;;;;;4960830;28;20206;-91
2023/05/07 00:34:24;;;;;;;29.60;27.07;;;9.00;89.20;;;;;;4961106;28;20221;-92
2023/05/07 00:36:50;;;;;;;31.40;28.57;;;8.90;89.30;;;;;;4962815;28;20202;-92
2023/05/07 00:39:15;;;;;;;30.53;27.73;;;8.90;89.30;;;;;;4963024;28;20650;-92
2023/05/07 00:41:41;;;;;;;31.67;28.67;;;9.00;89.30;;;;;;4972645;28;20202;-92
2023/05/07 00:44:06;;;;;;;30.97;28.07;;;9.00;89.30;;;;;;4970129;28;20187;-93
2023/05/07 00:46:33;;;;;;;30.30;27.60;;;8.90;89.40;;;;;;5000359;28;20167;-92
2023/05/07 00:49:00;;;;;;;30.80;27.90;;;8.90;89.40;;;;;;5155454;23;20703;-93
2023/05/07 00:51:29;;;;;;;29.70;27.10;;;8.90;89.40;;;;;;5033846;28;20205;-94
2023/05/07 00:53:55;;;;;;;30.43;27.83;;;8.90;89.50;;;;;;5025775;28;20174;-94
2023/05/07 00:56:22;;;;;;;29.80;27.13;;;9.00;89.50;;;;;;5032529;28;20213;-95
2023/05/07 00:58:48;;;;;;;31.97;29.07;;;9.00;89.60;;;;;;5026003;28;20185;-93
2023/05/07 01:01:15;;;;;;;32.03;29.00;;;8.90;89.60;;;;;;5015479;28;20296;-93
2023/05/07 01:03:41;;;;;;;32.43;29.53;;;8.90;89.60;;;;;;5015386;28;20177;-92
2023/05/07 01:06:08;;;;;;;33.57;30.63;;;8.90;89.70;;;;;;5015304;28;20178;-91
2023/05/07 01:08:35;;;;;;;31.03;28.00;;;8.90;89.70;;;;;;5015092;28;20261;-93
2023/05/07 01:11:00;;;;;;;30.13;27.43;;;8.90;89.70;;;;;;5016940;28;20213;-92
2023/05/07 01:13:27;;;;;;;29.40;26.80;;;8.90;89.70;;;;;;5016700;28;20265;-92
2023/05/07 01:15:53;;;;;;;25.67;23.37;;;8.90;89.50;;;;;;5015152;28;20181;-92
2023/05/07 01:18:18;;;;;;;28.33;25.53;;;8.80;89.30;;;;;;5015033;28;20181;-92
2023/05/07 01:20:45;;;;;;;25.57;23.27;;;8.80;89.10;;;;;;5015190;28;20205;-91
2023/05/07 01:23:11;;;;;;;26.37;23.97;;;8.80;88.90;;;;;;5015642;28;20181;-93
2023/05/07 01:25:37;;;;;;;25.27;23.17;;;8.80;88.80;;;;;;5016244;28;20212;-92
2023/05/07 01:28:02;;;;;;;26.30;24.10;;;8.80;88.70;;;;;;5014563;28;20178;-93
2023/05/07 01:30:29;;;;;;;26.53;24.13;;;8.90;88.50;;;;;;5016195;28;20201;-92
2023/05/07 01:33:08;;;;;;;25.07;22.77;;;8.80;88.40;;;;;;5015015;28;20617;-92
2023/05/07 01:35:47;;;;;;;22.60;20.60;;;8.80;88.30;;;;;;5017247;28;20227;-93
2023/05/07 01:38:13;;;;;;;24.90;22.70;;;8.80;88.10;;;;;;5016154;28;20173;-92
2023/05/07 01:40:38;;;;;;;23.10;21.17;;;8.80;88.00;;;;;;5014785;28;20197;-93
2023/05/07 01:43:05;;;;;;;24.20;22.20;;;8.80;88.00;;;;;;5015363;28;20177;-93
2023/05/07 01:45:32;;;;;;;21.83;20.03;;;8.80;87.90;;;;;;5016169;28;20184;-93
2023/05/07 01:47:59;;;;;;;24.73;22.67;;;8.90;87.80;;;;;;5014567;28;20181;-92
2023/05/07 01:50:25;;;;;;;25.53;23.07;;;8.90;87.80;;;;;;5015282;28;20209;-92
2023/05/07 01:52:51;;;;;;;25.27;22.80;;;8.90;87.90;;;;;;5014228;28;20177;-92
2023/05/07 01:55:17;;;;;;;26.10;23.60;;;8.90;88.00;;;;;;5014281;28;20251;-92
2023/05/07 01:57:43;;;;;;;26.23;24.03;;;8.90;88.10;;;;;;5015339;28;20671;-92
2023/05/07 02:00:09;;;;;;;27.40;25.00;;;9.00;88.20;;;;;;5015741;28;20201;-92
2023/05/07 02:02:35;;;;;;;29.07;26.47;;;8.90;88.20;;;;;;5014355;28;20223;-92
2023/05/07 02:05:01;;;;;;;27.47;25.07;;;8.90;88.30;;;;;;5013909;28;20174;-92
2023/05/07 02:07:27;;;;;;;27.17;24.67;;;9.00;88.40;;;;;;5014897;28;20213;-93
2023/05/07 02:09:55;;;;;;;24.93;22.70;;;9.00;88.40;;;;;;5016262;28;20211;-92
2023/05/07 02:12:20;;;;;;;24.13;21.97;;;9.00;88.10;;;;;;5014464;28;20220;-92
2023/05/07 02:14:46;;;;;;;27.10;24.70;;;8.90;88.00;;;;;;5014362;28;20174;-93
2023/05/07 02:17:12;;;;;;;24.37;22.27;;;9.00;88.00;;;;;;5015129;28;20543;-93
2023/05/07 02:19:37;;;;;;;22.83;20.93;;;8.90;87.70;;;;;;5013847;28;20264;-92
2023/05/07 02:22:03;;;;;;;24.87;22.77;;;8.90;87.60;;;;;;5014057;28;20251;-92
2023/05/07 02:24:28;;;;;;;25.17;22.90;;;9.00;87.50;;;;;;5013724;28;20181;-92
2023/05/07 02:26:54;;;;;;;24.53;22.43;;;9.00;87.40;;;;;;5013746;28;20184;-92
2023/05/07 02:29:19;;;;;;;23.50;21.60;;;9.00;87.30;;;;;;5013549;28;20659;-92
2023/05/07 02:31:45;;;;;;;25.10;23.10;;;9.00;87.30;;;;;;5014780;28;20603;-91
2023/05/07 02:34:10;;;;;;;24.20;22.30;;;9.00;87.40;;;;;;5014602;28;20174;-92
2023/05/07 02:36:36;;;;;;;25.20;23.20;;;9.00;87.20;;;;;;5013352;28;20178;-92
2023/05/07 02:39:02;;;;;;;23.37;21.37;;;9.00;87.20;;;;;;5012911;28;20178;-92
2023/05/07 02:41:28;;;;;;;23.40;21.00;;;9.00;87.10;;;;;;5013377;28;20197;-92
2023/05/07 02:43:54;;;;;;;22.93;20.93;;;8.90;86.90;;;;;;5014539;28;20235;-92
2023/05/07 02:46:19;;;;;;;21.63;19.93;;;8.90;86.60;;;;;;5014792;28;20186;-92
2023/05/07 02:48:45;;;;;;;21.53;19.83;;;8.90;86.50;;;;;;5013261;28;20295;-91
2023/05/07 02:51:10;;;;;;;20.90;19.30;;;8.90;86.60;;;;;;5014939;28;20220;-92
2023/05/07 02:53:36;;;;;;;22.57;20.67;;;9.00;86.40;;;;;;5014307;28;20174;-92
2023/05/07 02:56:02;;;;;;;22.90;21.20;;;9.00;86.30;;;;;;5015138;28;20174;-92
2023/05/07 02:58:28;;;;;;;22.77;20.87;;;9.00;86.30;;;;;;5013269;28;20182;-92
2023/05/07 03:00:56;;;;;;;22.43;20.53;;;9.00;86.20;;;;;;5013056;28;20201;-92
2023/05/07 03:03:22;;;;;;;23.07;21.33;;;8.90;86.30;;;;;;5012838;28;20208;-92
2023/05/07 03:05:48;;;;;;;23.30;21.40;;;9.00;86.40;;;;;;5012876;28;20551;-91
2023/05/07 03:08:13;;;;;;;22.97;21.17;;;9.00;86.40;;;;;;5012821;28;20281;-92
2023/05/07 03:10:39;;;;;;;21.47;19.77;;;9.00;86.40;;;;;;5012746;28;20209;-91
2023/05/07 03:13:05;;;;;;;22.87;21.07;;;9.00;86.50;;;;;;5013982;28;20200;-91
2023/05/07 03:15:30;;;;;;;24.13;22.10;;;9.00;86.60;;;;;;5012580;28;20182;-92
2023/05/07 03:17:56;;;;;;;23.70;21.90;;;9.00;86.70;;;;;;5012557;28;20177;-91
2023/05/07 03:20:21;;;;;;;23.33;21.27;;;9.00;86.80;;;;;;5013722;28;20706;-91
2023/05/07 03:22:47;;;;;;;24.30;22.40;;;8.90;86.90;;;;;;5012518;28;20193;-91
2023/05/07 03:25:14;;;;;;;23.47;21.67;;;9.00;87.10;;;;;;5012638;28;20228;-91
2023/05/07 03:27:41;;;;;;;24.93;22.83;;;9.00;87.30;;;;;;5012665;28;20726;-91
2023/05/07 03:30:08;;;;;;;24.10;21.90;;;9.00;87.50;;;;;;5013940;28;20205;-91
2023/05/07 03:32:35;;;;;;;24.07;21.87;;;9.00;87.80;;;;;;5012515;28;20185;-91
2023/05/07 03:35:00;;;;;;;24.17;21.77;;;9.00;88.00;;;;;;5012357;28;20188;-91
2023/05/07 03:37:26;;;;;;;23.60;21.60;;;8.90;88.20;;;;;;5012827;28;20620;-91
2023/05/07 03:39:51;;;;;;;23.30;21.30;;;8.90;88.30;;;;;;5013573;28;20184;-91
2023/05/07 03:42:17;;;;;;;23.57;21.50;;;8.90;88.50;;;;;;5013386;28;20209;-92
2023/05/07 03:44:43;;;;;;;23.33;21.43;;;8.80;88.60;;;;;;5013657;28;20220;-92
2023/05/07 03:47:09;;;;;;;24.23;21.93;;;8.80;88.70;;;;;;5012535;28;20547;-91
2023/05/07 03:49:35;;;;;;;25.07;22.70;;;8.80;88.80;;;;;;5013411;28;20191;-91
2023/05/07 03:52:01;;;;;;;24.20;22.00;;;8.80;88.90;;;;;;5015562;28;20196;-92
2023/05/07 03:54:26;;;;;;;24.03;22.03;;;8.80;88.90;;;;;;5016575;28;20188;-92
2023/05/07 03:56:52;;;;;;;24.37;22.27;;;8.80;88.90;;;;;;5016270;28;20276;-92
2023/05/07 03:59:17;;;;;;;24.53;22.30;;;8.80;88.90;;;;;;5017683;28;20181;-92
2023/05/07 04:01:43;;;;;;;25.80;23.37;;;8.80;89.10;;;;;;5016109;28;20209;-92
2023/05/07 04:04:08;;;;;;;23.57;21.47;;;8.80;89.10;;;;;;5016152;28;20212;-91
2023/05/07 04:06:34;;;;;;;24.67;22.17;;;8.80;89.20;;;;;;5017799;28;20182;-91
2023/05/07 04:08:59;;;;;;;26.23;23.90;;;8.80;89.20;;;;;;5017470;28;20656;-91
2023/05/07 04:11:25;;;;;;;24.93;22.70;;;8.80;89.20;;;;;;5016111;28;20633;-91
2023/05/07 04:13:51;;;;;;;23.97;21.70;;;8.80;89.20;;;;;;5017562;28;20655;-91
2023/05/07 04:16:16;;;;;;;25.53;23.07;;;8.80;89.20;;;;;;5017487;28;20288;-92
2023/05/07 04:18:42;;;;;;;23.37;21.20;;;8.80;89.20;;;;;;5016068;28;20177;-91
2023/05/07 04:21:15;;;;;;;25.37;22.80;;;8.80;89.30;;;;;;5015722;28;20279;-92
2023/05/07 04:23:41;;;;;;;27.63;25.03;;;8.80;89.30;;;;;;5016011;28;20186;-92
2023/05/07 04:26:06;;;;;;;26.93;24.13;;;8.80;89.40;;;;;;5016013;28;20188;-92
2023/05/07 04:28:32;;;;;;;26.60;24.13;;;8.80;89.50;;;;;;5017023;28;20180;-92
2023/05/07 04:30:57;;;;;;;27.13;24.53;;;8.80;89.50;;;;;;5015638;28;20220;-91
2023/05/07 04:33:23;;;;;;;28.70;25.93;;;8.80;89.50;;;;;;5015602;28;20177;-91
2023/05/07 04:35:48;;;;;;;26.57;24.10;;;8.90;89.60;;;;;;5015918;28;20174;-91
2023/05/07 04:38:14;;;;;;;27.97;25.43;;;8.90;89.60;;;;;;5017098;28;20640;-92
2023/05/07 04:40:41;;;;;;;29.00;26.30;;;8.80;89.50;;;;;;5016197;28;20595;-92
2023/05/07 04:43:07;;;;;;;27.10;24.53;;;8.90;89.30;;;;;;5016718;28;20197;-92
2023/05/07 04:45:32;;;;;;;28.90;26.40;;;8.90;89.20;;;;;;5016631;28;20257;-91
2023/05/07 04:47:58;;;;;;;27.03;24.63;;;8.90;89.30;;;;;;5015722;28;20207;-92
2023/05/07 04:50:24;;;;;;;25.63;23.40;;;8.90;89.20;;;;;;5016585;28;20217;-93
2023/05/07 04:52:50;;;;;;;26.80;24.10;;;8.90;89.00;;;;;;5015725;28;20174;-92
2023/05/07 04:55:15;;;;;;;24.50;22.33;;;8.90;88.90;;;;;;5015862;28;20239;-91
2023/05/07 04:57:41;;;;;;;25.83;23.43;;;9.00;88.80;;;;;;5015764;28;20200;-92
2023/05/07 05:00:08;;;;;;;26.83;24.43;;;8.90;88.40;;;;;;5015368;28;20666;-92
2023/05/07 05:02:34;;;;;;;24.07;21.77;;;9.00;88.20;;;;;;5014191;28;20185;-92
2023/05/07 05:05:02;;;;;;;24.50;22.30;;;9.00;88.00;;;;;;5015677;28;20177;-92
2023/05/07 05:07:28;;;;;;;24.07;22.00;;;9.00;87.60;;;;;;5015093;28;20199;-92
2023/05/07 05:09:53;;;;;;;23.67;21.50;;;9.10;87.30;;;;;;5014702;28;20626;-92
2023/05/07 05:12:19;;;;;;;23.43;21.07;;;9.00;87.00;;;;;;5015113;28;20182;-91
2023/05/07 05:14:44;;;;;;;23.57;21.50;;;9.10;86.90;;;;;;5017041;28;20177;-92
2023/05/07 05:17:10;;;;;;;23.93;21.90;;;9.20;86.70;;;;;;5016734;28;20184;-91
2023/05/07 05:19:35;;;;;;;22.67;20.63;;;9.20;86.80;;;;;;5014609;28;20205;-91
2023/05/07 05:22:03;;;;;;;25.20;22.03;;;9.20;86.90;;;;;;5016219;28;20225;-92
2023/05/07 05:24:29;;;;;;;23.47;21.37;;;9.20;86.90;;;;;;5016036;28;20194;-91
2023/05/07 05:26:55;;;;;;;25.27;22.87;;;9.20;86.90;;;;;;5014873;28;20663;-91
2023/05/07 05:29:20;;;;;;;22.90;20.87;;;9.20;87.10;;;;;;5015598;28;20235;-91
2023/05/07 05:31:46;;;;;;;24.10;21.80;;;9.20;87.00;;;;;;5014618;28;20229;-91
2023/05/07 05:34:11;;;;;;;21.77;19.87;;;9.20;87.00;;;;;;5015778;28;20170;-92
2023/05/07 05:36:37;;;;;;;23.13;20.83;;;9.10;87.00;;;;;;5014658;28;20589;-92
2023/05/07 05:39:03;;;;;;;22.80;20.73;;;9.10;86.90;;;;;;5015037;28;20546;-92
2023/05/07 05:41:28;;;;;;;18.90;17.20;;;9.10;86.80;;;;;;5016406;28;20193;-90
2023/05/07 05:43:54;;;;;;;18.57;16.63;;;9.20;86.70;;;;;;5016954;28;20177;-91
2023/05/07 05:46:19;;;;;;;18.87;16.93;;;9.20;86.70;;;;;;5014428;28;20173;-91
2023/05/07 05:48:45;;;;;;;17.50;15.90;;;9.20;86.90;;;;;;5014691;28;20191;-91
2023/05/07 05:51:10;;;;;;;17.53;15.80;;;9.20;86.80;;;;;;5014191;28;20209;-92
2023/05/07 05:53:36;;;;;;;17.57;15.97;;;9.20;86.90;;;;;;5014483;28;20181;-92
2023/05/07 05:56:02;;;;;;;23.87;21.87;;;9.20;86.70;;;;;;5016835;28;20170;-92
2023/05/07 05:58:28;;;;;;;22.20;20.30;;;9.20;86.50;;;;;;5015940;28;20314;-91
2023/05/07 06:00:53;;;;;;;23.03;21.00;;;9.20;86.60;;;;;;5016702;28;20679;-91
2023/05/07 06:03:19;;;;;;;22.20;20.30;;;9.20;86.30;;;;;;5014066;28;20177;-91
2023/05/07 06:05:44;;;;;;;20.93;19.03;;;9.20;86.30;;;;;;5014193;28;20183;-91
2023/05/07 06:08:10;;;;;;;22.50;20.37;;;9.20;86.40;;;;;;5016115;28;20703;-91
2023/05/07 06:10:39;;;;;;;21.10;19.17;;;9.20;86.30;;;;;;5016709;28;20726;-92
2023/05/07 06:13:04;;;;;;;22.03;20.17;;;9.20;86.00;;;;;;5015049;28;20663;-92
2023/05/07 06:15:30;;;;;;;23.10;21.00;;;9.20;85.90;;;;;;5014253;28;20205;-92
2023/05/07 06:17:57;;;;;;;23.73;21.73;;;9.20;85.80;;;;;;5014364;28;20539;-91
2023/05/07 06:20:23;;;;;;;24.10;22.20;;;9.30;85.80;;;;;;5015442;28;20196;-91
2023/05/07 06:22:48;;;;;;;23.97;22.07;;;9.30;85.70;;;;;;5013459;28;20177;-91
2023/05/07 06:25:14;;;;;;;25.03;22.93;;;9.30;85.80;;;;;;5013616;28;20177;-92
2023/05/07 06:27:40;;;;;;;24.10;22.10;;;9.40;85.80;;;;;;5013679;28;20595;-92
2023/05/07 06:30:06;;;;;;;24.53;22.53;;;9.40;85.80;;;;;;5013335;28;20209;-92
2023/05/07 06:32:32;;;;;;;24.63;22.63;;;9.40;85.70;;;;;;5015088;28;20174;-92
2023/05/07 06:34:58;;;;;;;20.50;18.60;;;9.50;85.80;;;;;;5015594;28;20253;-92
2023/05/07 06:37:23;;;;;;;19.47;17.47;;;9.40;85.60;;;;;;5014287;28;20173;-92
2023/05/07 06:39:49;;;;;;;23.07;21.17;;;9.50;85.70;;;;;;5014057;28;20185;-92
2023/05/07 06:42:14;;;;;;;25.03;22.90;;;9.50;85.60;;;;;;5013539;28;20190;-92
2023/05/07 06:44:40;;;;;;;23.50;21.57;;;9.50;85.40;;;;;;5014370;28;20550;-91
2023/05/07 06:47:05;;;;;;;23.27;20.97;;;9.60;85.60;;;;;;5015510;28;20639;-92
2023/05/07 06:49:31;;;;;;;22.97;21.10;;;9.60;85.40;;;;;;5014639;28;20199;-91
2023/05/07 06:51:57;;;;;;;24.60;22.60;;;9.60;85.20;;;;;;5013144;28;20563;-88
2023/05/07 06:54:22;;;;;;;23.00;21.07;;;9.70;85.10;;;;;;5014105;28;20226;-88
2023/05/07 06:56:48;;;;;;;22.90;21.00;;;9.80;84.80;;;;;;5014099;28;20173;-87
2023/05/07 06:59:13;;;;;;;22.37;20.47;;;9.80;84.70;;;;;;5013562;28;20173;-91
2023/05/07 07:01:39;;;;;;;23.17;21.07;;;9.80;84.40;;;;;;5018041;28;20201;-92
2023/05/07 07:04:05;;;;;;;23.37;21.37;;;9.90;84.50;;;;;;5014648;28;20174;-91
2023/05/07 07:06:31;;;;;;;22.47;20.70;;;9.90;84.40;;;;;;5022224;28;20169;-91
2023/05/07 07:08:57;;;;;;;23.00;21.10;;;9.90;84.10;;;;;;5013214;28;20181;-91
2023/05/07 07:11:23;;;;;;;21.47;19.67;;;9.90;84.00;;;;;;5013853;28;20216;-92
2023/05/07 07:13:49;;;;;;;21.97;20.17;;;9.90;83.80;;;;;;5019601;28;20173;-91
2023/05/07 07:16:14;;;;;;;22.43;20.53;;;9.90;83.20;;;;;;5018021;28;20606;-92
2023/05/07 07:18:40;;;;;;;21.67;19.77;;;9.90;83.40;;;;;;5016877;28;20209;-91
2023/05/07 07:21:05;;;;;;;21.90;20.13;;;10.00;83.40;;;;;;5022065;28;20205;-91
2023/05/07 07:23:31;;;;;;;23.00;21.00;;;10.00;83.30;;;;;;5014054;28;20170;-91
2023/05/07 07:25:57;;;;;;;23.37;21.37;;;10.00;83.20;;;;;;5013433;28;20331;-91
2023/05/07 07:28:22;;;;;;;23.83;21.83;;;10.20;83.30;;;;;;5012580;28;20299;-91
2023/05/07 07:30:48;;;;;;;23.87;22.03;;;10.20;83.20;;;;;;5014433;28;20637;-92
2023/05/07 07:33:14;;;;;;;25.67;23.57;;;10.30;82.90;;;;;;5012768;28;20173;-92
2023/05/07 07:35:40;;;;;;;23.97;21.97;;;10.30;82.80;;;;;;5012695;28;20178;-91
2023/05/07 07:38:05;;;;;;;22.27;20.33;;;10.30;83.00;;;;;;5013551;28;20176;-91
2023/05/07 07:40:31;;;;;;;23.30;21.40;;;10.40;83.30;;;;;;5014337;28;20189;-91
2023/05/07 07:42:57;;;;;;;23.87;21.97;;;10.40;82.90;;;;;;5012561;28;20185;-92
2023/05/07 07:45:23;;;;;;;23.37;21.57;;;10.40;82.30;;;;;;5012729;28;20174;-91
2023/05/07 07:47:48;;;;;;;23.57;21.57;;;10.50;82.60;;;;;;5013615;28;20648;-91
2023/05/07 07:50:14;;;;;;;24.83;22.87;;;10.50;82.90;;;;;;5013764;28;20642;-92
2023/05/07 07:52:40;;;;;;;24.60;22.47;;;10.50;82.90;;;;;;5012819;28;20178;-92
2023/05/07 07:55:06;;;;;;;24.13;22.23;;;10.50;82.70;;;;;;5013890;28;20177;-91
2023/05/07 07:57:32;;;;;;;24.77;22.87;;;10.60;82.30;;;;;;5014327;28;20198;-92
2023/05/07 08:00:00;;;;;;;23.20;21.30;;;10.50;82.10;;;;;;5013441;28;20178;-92
2023/05/07 08:02:26;;;;;;;23.13;21.27;;;10.60;81.90;;;;;;5013428;28;20273;-92
2023/05/07 08:04:51;;;;;;;22.57;20.83;;;10.60;81.70;;;;;;5012352;28;20177;-91
2023/05/07 08:07:20;;;;;;;23.17;21.30;;;10.50;81.80;;;;;;5013828;28;20252;-92
2023/05/07 08:09:46;;;;;;;21.23;19.57;;;10.60;82.10;;;;;;5013420;28;20176;-92
2023/05/07 08:12:12;;;;;;;22.27;20.57;;;10.60;82.00;;;;;;5013610;28;20248;-91
2023/05/07 08:14:38;;;;;;;20.70;19.10;;;10.60;81.60;;;;;;5013808;28;20193;-92
2023/05/07 08:17:03;;;;;;;21.57;19.53;;;10.60;81.60;;;;;;5014264;28;20252;-92
2023/05/07 08:19:29;;;;;;;21.60;20.00;;;10.70;81.60;;;;;;5013996;28;20181;-91
2023/05/07 08:21:55;;;;;;;21.83;19.93;;;10.60;81.20;;;;;;5015073;28;20197;-91
2023/05/07 08:24:20;;;;;;;20.50;18.90;;;10.70;81.40;;;;;;5015031;28;20176;-90
2023/05/07 08:26:46;;;;;;;20.53;18.93;;;10.70;81.40;;;;;;5014273;28;20261;-91
2023/05/07 08:29:12;;;;;;;20.50;18.90;;;10.70;81.10;;;;;;5014892;28;20189;-91
2023/05/07 08:31:39;;;;;;;21.73;20.10;;;10.80;81.70;;;;;;5012126;28;20300;-90
2023/05/07 08:34:05;;;;;;;22.80;20.70;;;10.80;81.60;;;;;;5013421;28;20173;-91
2023/05/07 08:36:30;;;;;;;22.80;21.10;;;10.80;81.90;;;;;;5012936;28;20166;-91
2023/05/07 08:38:56;;;;;;;22.20;20.57;;;10.80;81.40;;;;;;5014743;28;20188;-92
2023/05/07 08:41:22;;;;;;;22.07;20.47;;;10.80;81.30;;;;;;5018217;28;20197;-91
2023/05/07 08:43:50;;;;;;;23.40;21.17;;;10.80;81.00;;;;;;5017272;28;20647;-92
2023/05/07 08:46:22;;;;;;;21.30;19.50;;;10.80;81.30;;;;;;5017633;28;20257;-91
2023/05/07 08:48:51;;;;;;;21.93;19.90;;;11.00;81.50;;;;;;5019266;28;20275;-92
2023/05/07 08:51:21;;;;;;;20.30;18.80;;;10.90;80.60;;;;;;5018661;28;20215;-91
2023/05/07 08:53:49;;;;;;;22.37;20.67;;;11.00;80.40;;;;;;5017146;28;20173;-92
2023/05/07 08:56:16;;;;;;;20.67;18.87;;;11.00;80.60;;;;;;5015437;28;20178;-91
2023/05/07 08:58:43;;;;;;;20.77;18.97;;;11.10;80.60;;;;;;5014989;28;20177;-92
2023/05/07 09:01:14;;;;;;;19.60;17.83;;;11.10;80.50;;;;;;5016585;28;20200;-92
2023/05/07 09:03:40;;;;;;;20.13;18.43;;;11.10;80.30;;;;;;5016577;28;20161;-92
2023/05/07 09:06:06;;;;;;;18.37;16.97;;;11.20;81.10;;;;;;5017458;28;20680;-92
2023/05/07 09:08:33;;;;;;;18.97;17.47;;;11.20;80.50;;;;;;5016018;28;20212;-92
2023/05/07 09:10:59;;;;;;;17.70;16.40;;;11.20;80.60;;;;;;5016079;28;20687;-90
2023/05/07 09:13:26;;;;;;;17.13;15.70;;;11.20;80.70;;;;;;5023660;28;20174;-92
2023/05/07 09:15:52;;;;;;;16.03;14.87;;;11.20;80.50;;;;;;5024309;28;20236;-93
2023/05/07 09:18:18;;;;;;;18.70;16.33;;;11.20;80.30;;;;;;5025018;28;20550;-92
2023/05/07 09:20:43;;;;;;;19.07;17.53;;;11.10;80.20;;;;;;5016239;28;20209;-92
2023/05/07 09:23:09;;;;;;;16.83;15.53;;;11.20;80.70;;;;;;5015546;28;20178;-92
2023/05/07 09:25:36;;;;;;;17.00;15.70;;;11.20;80.50;;;;;;5015267;28;20232;-91
2023/05/07 09:28:03;;;;;;;18.33;16.70;;;11.30;80.40;;;;;;5015541;28;20185;-91
2023/05/07 09:30:30;;;;;;;17.90;16.40;;;11.30;79.80;;;;;;5017518;28;20220;-92
2023/05/07 09:32:56;;;;;;;18.63;17.00;;;11.30;79.50;;;;;;5017556;28;20173;-91
2023/05/07 09:35:26;;;;;;;17.20;15.97;;;11.30;79.30;;;;;;5015487;28;20281;-91
2023/05/07 09:37:52;;;;;;;17.77;16.37;;;11.30;79.40;;;;;;5016589;28;20166;-91
2023/05/07 09:40:29;;;;;;;18.47;17.10;;;11.40;79.40;;;;;;5015897;28;20208;-91
2023/05/07 09:42:55;;;;;;;16.83;15.40;;;11.50;79.30;;;;;;5015873;28;20161;-92
2023/05/07 09:45:28;;;;;;;19.47;17.97;;;11.70;79.40;;;;;;5015277;28;20188;-91
2023/05/07 09:47:57;;;;;;;19.20;17.63;;;11.80;78.80;;;;;;5014600;28;20189;-91
2023/05/07 09:50:28;;;;;;;18.50;17.00;;;11.80;78.70;;;;;;5016078;28;20217;-91
2023/05/07 09:52:55;;;;;;;21.00;19.40;;;11.90;78.90;;;;;;5015679;28;20169;-92
2023/05/07 09:55:22;;;;;;;20.83;19.23;;;12.00;79.50;;;;;;5015326;28;20196;-91
2023/05/07 09:57:51;;;;;;;20.80;19.20;;;12.00;79.10;;;;;;5014011;28;20195;-91
2023/05/07 10:00:19;;;;;;;19.07;17.63;;;11.90;79.40;;;;;;5015096;28;20710;-91
2023/05/07 10:02:49;;;;;;;21.43;19.60;;;11.80;79.00;;;;;;5013883;28;20181;-90
2023/05/07 10:05:15;;;;;;;17.83;16.43;;;11.90;79.40;;;;;;5013672;28;20178;-90
2023/05/07 10:07:41;;;;;;;20.87;19.33;;;11.90;79.20;;;;;;5015188;28;20181;-90
2023/05/07 10:10:07;;;;;;;20.37;18.90;;;11.80;78.70;;;;;;5014875;28;20209;-91
2023/05/07 10:12:38;;;;;;;20.03;18.43;;;11.80;78.60;;;;;;5017054;28;20177;-93
2023/05/07 10:15:10;;;;;;;18.27;16.80;;;11.80;78.90;;;;;;5023105;28;20162;-91
2023/05/07 10:17:40;;;;;;;19.63;18.03;;;11.80;78.50;;;;;;5017893;28;20177;-92
2023/05/07 10:20:08;;;;;;;17.87;16.27;;;11.70;78.40;;;;;;5019664;28;20206;-91
2023/05/07 10:22:40;;;;;;;18.90;17.07;;;11.80;79.10;;;;;;5020496;28;20181;-92
2023/05/07 10:25:17;;;;;;;20.30;18.70;;;11.70;78.50;;;;;;5013755;28;20174;-91
2023/05/07 10:27:44;;;;;;;19.43;18.03;;;11.80;78.60;;;;;;5013332;28;20208;-91
2023/05/07 10:30:32;;;;;;;20.00;18.47;;;11.80;78.40;;;;;;5014551;28;20267;-91
2023/05/07 10:33:05;;;;;;;19.03;17.53;;;11.80;78.10;;;;;;5013555;28;20185;-91
2023/05/07 10:35:38;;;;;;;18.57;17.10;;;11.80;78.30;;;;;;5013414;28;20181;-90
2023/05/07 10:38:05;;;;;;;21.00;19.40;;;11.80;78.60;;;;;;5014463;28;20166;-91
2023/05/07 10:40:31;;;;;;;21.03;19.33;;;11.80;78.00;;;;;;5014338;28;20205;-91
2023/05/07 10:43:00;;;;;;;20.20;18.70;;;12.00;79.00;;;;;;5014361;28;20177;-91
2023/05/07 10:45:26;;;;;;;20.90;19.30;;;12.00;77.60;;;;;;5013490;28;20185;-91
2023/05/07 10:48:10;;;;;;;21.77;19.87;;;12.10;77.80;;;;;;5014399;28;20173;-91
2023/05/07 10:50:37;;;;;;;21.40;19.83;;;12.10;77.40;;;;;;5013539;28;20645;-93
2023/05/07 10:53:18;;;;;;;21.07;19.20;;;12.20;77.30;;;;;;5015204;28;20224;-92
2023/05/07 10:55:46;;;;;;;21.13;19.57;;;12.30;77.20;;;;;;5013426;28;20188;-92
2023/05/07 10:58:21;;;;;;;20.80;19.00;;;12.20;76.70;;;;;;5014147;28;20632;-90
2023/05/07 11:00:47;;;;;;;21.67;20.07;;;12.10;76.90;;;;;;5012378;28;20612;-90
2023/05/07 11:03:14;;;;;;;22.90;20.90;;;12.20;77.30;;;;;;5014762;28;20174;-91
2023/05/07 11:05:41;;;;;;;19.97;18.57;;;12.10;77.30;;;;;;5014560;28;20726;-91
2023/05/07 11:08:08;;;;;;;21.43;19.63;;;12.20;77.30;;;;;;5013034;28;20231;-91
2023/05/07 11:10:51;;;;;;;23.27;21.40;;;12.20;77.70;;;;;;5014014;28;20584;-91
2023/05/07 11:13:17;;;;;;;20.83;19.30;;;12.20;77.30;;;;;;5014581;28;20173;-91
2023/05/07 11:15:47;;;;;;;21.03;19.53;;;12.20;76.40;;;;;;5012794;28;20176;-90
2023/05/07 11:18:15;;;;;;;22.93;21.13;;;12.30;76.70;;;;;;5014258;28;20723;-91
2023/05/07 11:20:51;;;;;;;22.13;20.53;;;12.40;75.90;;;;;;5013827;28;20197;-91
2023/05/07 11:23:37;;;;;;;22.47;20.63;;;12.60;76.00;;;;;;5012554;28;20205;-91
2023/05/07 11:26:11;;;;;;;22.87;21.10;;;12.80;75.80;;;;;;5013659;28;20236;-91
2023/05/07 11:28:43;;;;;;;23.40;21.70;;;12.80;75.50;;;;;;5014609;28;20177;-91
2023/05/07 11:31:10;;;;;;;23.90;22.00;;;12.80;75.40;;;;;;5012882;28;20209;-91
2023/05/07 11:33:38;;;;;;;23.97;21.93;;;12.80;75.50;;;;;;5014250;28;20199;-90
2023/05/07 11:36:05;;;;;;;20.93;19.53;;;12.80;75.90;;;;;;5013647;28;20169;-90
2023/05/07 11:38:34;;;;;;;22.70;21.10;;;13.00;76.80;;;;;;5013558;28;20215;-90
2023/05/07 11:41:04;;;;;;;21.93;20.17;;;13.10;75.90;;;;;;5013744;28;20605;-89
2023/05/07 11:43:30;;;;;;;21.80;20.23;;;12.90;75.10;;;;;;5013802;28;20181;-90
2023/05/07 11:46:11;;;;;;;21.47;19.90;;;12.90;75.80;;;;;;5018567;28;20661;-91
2023/05/07 11:48:37;;;;;;;22.07;20.30;;;12.80;74.80;;;;;;5014787;28;20205;-91
2023/05/07 11:51:12;;;;;;;21.40;19.80;;;12.80;75.80;;;;;;5013064;28;20216;-90
2023/05/07 11:53:40;;;;;;;21.80;20.30;;;13.00;76.00;;;;;;5013508;28;20176;-91
2023/05/07 11:56:13;;;;;;;20.70;19.17;;;13.10;74.90;;;;;;5015559;28;20197;-90
2023/05/07 11:58:40;;;;;;;22.63;21.03;;;13.00;74.20;;;;;;5014655;28;20284;-90
2023/05/07 12:01:12;;;;;;;23.83;21.47;;;13.00;75.00;;;;;;5012328;28;20227;-91
2023/05/07 12:03:43;;;;;;;23.00;21.40;;;13.10;74.70;;;;;;5012607;28;20551;-90
2023/05/07 12:06:10;;;;;;;21.83;20.30;;;13.10;74.20;;;;;;5016303;28;20162;-90
2023/05/07 12:08:37;;;;;;;22.93;21.00;;;13.00;73.90;;;;;;5018163;28;20174;-90
2023/05/07 12:11:06;;;;;;;21.60;20.10;;;13.00;74.30;;;;;;5015840;28;20256;-90
2023/05/07 12:13:32;;;;;;;20.90;19.40;;;13.20;74.90;;;;;;5015919;28;20173;-91
2023/05/07 12:15:57;;;;;;;22.47;20.77;;;13.30;75.10;;;;;;5018261;28;20169;-92
2023/05/07 12:18:24;;;;;;;22.97;21.10;;;13.20;73.60;;;;;;5018212;28;20653;-91
2023/05/07 12:20:50;;;;;;;21.53;19.83;;;13.30;73.90;;;;;;5017507;28;20194;-90
2023/05/07 12:23:16;;;;;;;22.20;20.60;;;13.30;74.30;;;;;;5017294;28;20180;-90
2023/05/07 12:25:46;;;;;;;20.03;18.53;;;13.30;73.50;;;;;;5016639;28;20555;-90
2023/05/07 12:28:16;;;;;;;22.10;20.30;;;13.50;74.80;;;;;;5016005;28;20670;-89
2023/05/07 12:30:44;;;;;;;22.83;20.80;;;13.50;73.80;;;;;;5016289;28;20297;-90